No particular awareness of the weather is required.    There are no Weather-warnings


Meteo18 Weather Cam more information Meteo18 Weather Cam


Thunder radar more information blitzortung!


Rain radar more information rain snow radar


Visit our other weather sites:

Template documentation
and downloads

And another site



Weather Underground History page Text

Daily Summary for October 14, 2017 Units:  Metric    English   Both
« Previous Day
Next Day »
Daily Weekly Monthly Yearly Custom
  High: Low: Average:
Temperature: -17.8 °C -12.3 °C -10.5 °C
Dew Point: -17.8 °C -12.6 °C -11.4 °C
Humidity: Humidity % 63 % 89 %
Wind Speed: 0 km/h 0 km/h 0.8 km/h
Wind Gust: 0 km/h - -
Wind:- - SE
Pressure: 0 hPa 34760.7 hPa -
Precipitation: 7.62 mm    
Historical Graphs
 
 
Tabular Data for October 14, 2017
Time Temperature Dew Point Pressure Wind Wind Speed Wind Gust Humidity Rainfall Rate (Hourly)
-17.8 °C -17.8 °C 0 hPa Calm     Humidity % 0 mm
00:02 -10.8 °C -11.3 °C 34784.4 hPa Calm   5.1 km/h 94 % 0 mm
00:12 -10.8 °C -11.3 °C 34784.4 hPa Calm   2.6 km/h 94 % 0 mm
00:17 -10.8 °C -11.2 °C 34784.4 hPa Calm   2.6 km/h 95 % 0 mm
00:22 -10.7 °C -11.2 °C 34784.4 hPa Calm   2.6 km/h 95 % 0 mm
00:32 -10.9 °C -11.4 °C 34784.4 hPa Calm     94 % 0 mm
00:42 -10.9 °C -11.4 °C 34784.4 hPa Calm     94 % 0 mm
00:47 -11 °C -11.5 °C 34784.4 hPa WNW 2.6 km/h 2.6 km/h 94 % 0 mm
00:52 -11.1 °C -11.5 °C 34784.4 hPa Calm   2.6 km/h 95 % 0 mm
00:57 -11 °C -11.4 °C 34784.4 hPa Calm   2.6 km/h 95 % 0 mm
01:02 -11.1 °C -11.5 °C 34784.4 hPa Calm   2.6 km/h 95 % 0 mm
01:07 -11.1 °C -11.5 °C 34784.4 hPa Calm   2.6 km/h 95 % 0 mm
01:12 -11.1 °C -11.6 °C 34784.4 hPa Calm   2.6 km/h 95 % 0 mm
01:22 -11.2 °C -11.6 °C 34784.4 hPa Calm   2.6 km/h 95 % 0 mm
01:32 -11.1 °C -11.4 °C 34784.4 hPa Calm   2.6 km/h 96 % 0 mm
01:37 -11.1 °C -11.4 °C 34784.4 hPa Calm   2.6 km/h 96 % 0 mm
01:42 -11.2 °C -11.7 °C 34797.9 hPa Calm     95 % 0 mm
01:47 -11.2 °C -11.7 °C 34784.4 hPa Calm     95 % 0 mm
01:52 -11.2 °C -11.7 °C 34797.9 hPa Calm     95 % 0 mm
01:57 -11.3 °C -11.7 °C 34784.4 hPa Calm     95 % 0 mm
02:02 -11.3 °C -11.8 °C 34784.4 hPa Calm     95 % 0 mm
02:07 -11.3 °C -11.8 °C 34784.4 hPa Calm     95 % 0 mm
02:12 -11.4 °C -11.9 °C 34784.4 hPa Calm     95 % 0 mm
02:17 -11.4 °C -11.8 °C 34784.4 hPa Calm     96 % 0 mm
02:22 -11.3 °C -11.7 °C 34784.4 hPa Calm     96 % 0 mm
02:32 -11.4 °C -11.9 °C 34784.4 hPa Calm     95 % 0 mm
02:37 -11.5 °C -11.8 °C 34797.9 hPa Calm     96 % 0 mm
02:42 -11.4 °C -11.7 °C 34797.9 hPa Calm     96 % 0 mm
02:47 -11.4 °C -11.7 °C 34784.4 hPa Calm     96 % 0 mm
02:52 -11.5 °C -11.9 °C 34784.4 hPa Calm     95 % 0 mm
02:57 -11.6 °C -11.9 °C 34797.9 hPa Calm     96 % 0 mm
03:02 -11.6 °C -11.9 °C 34797.9 hPa Calm     96 % 0 mm
03:12 -11.5 °C -11.8 °C 34784.4 hPa Calm     96 % 0 mm
03:17 -11.6 °C -11.9 °C 34784.4 hPa Calm     96 % 0 mm
03:22 -11.7 °C -12 °C 34784.4 hPa Calm     96 % 0 mm
03:27 -11.6 °C -11.8 °C 34784.4 hPa Calm     97 % 0 mm
03:32 -11.5 °C -11.8 °C 34784.4 hPa Calm   2.6 km/h 97 % 0 mm
03:37 -11.5 °C -11.8 °C 34784.4 hPa Calm   2.6 km/h 96 % 0 mm
03:42 -11.5 °C -11.8 °C 34784.4 hPa Calm   2.6 km/h 96 % 0 mm
03:52 -11.6 °C -11.9 °C 34774.2 hPa Calm     96 % 0 mm
03:57 -11.7 °C -12.1 °C 34774.2 hPa Calm     96 % 0 mm
04:02 -11.6 °C -11.8 °C 34774.2 hPa Calm     97 % 0 mm
04:07 -11.6 °C -11.9 °C 34774.2 hPa Calm     96 % 0 mm
04:12 -11.6 °C -11.9 °C 34774.2 hPa Calm     96 % 0 mm
04:17 -11.7 °C -12 °C 34774.2 hPa Calm     96 % 0 mm
04:22 -11.7 °C -12.1 °C 34774.2 hPa Calm     96 % 0 mm
04:32 -11.8 °C -12.2 °C 34774.2 hPa Calm     96 % 0 mm
04:42 -11.8 °C -12.1 °C 34774.2 hPa Calm     96 % 0 mm
04:47 -11.8 °C -12.1 °C 34774.2 hPa Calm     96 % 0 mm
04:52 -11.8 °C -12.2 °C 34774.2 hPa Calm     96 % 0 mm
04:57 -11.9 °C -12.2 °C 34774.2 hPa Calm     96 % 0 mm
05:02 -11.9 °C -12.2 °C 34774.2 hPa Calm     96 % 0 mm
05:12 -12.1 °C -12.4 °C 34774.2 hPa Calm     96 % 0 mm
05:22 -12.2 °C -12.6 °C 34774.2 hPa Calm     96 % 0 mm
05:42 -12.1 °C -12.4 °C 34774.2 hPa Calm     96 % 0 mm
05:47 -12.1 °C -12.4 °C 34774.2 hPa Calm     96 % 0 mm
05:52 -12.2 °C -12.5 °C 34760.7 hPa Calm     96 % 0 mm
05:57 -12.1 °C -12.4 °C 34760.7 hPa Calm     97 % 0 mm
06:02 -12.3 °C -12.6 °C 34760.7 hPa Calm     96 % 0 mm
06:12 -12.3 °C -12.6 °C 34774.2 hPa Calm     97 % 0 mm
06:17 -12.3 °C -12.6 °C 34774.2 hPa Calm     97 % 0 mm
06:22 -12.2 °C -12.5 °C 34774.2 hPa Calm     97 % 0 mm
06:32 -12.1 °C -12.4 °C 34774.2 hPa Calm     97 % 0 mm
06:42 -12.2 °C -12.4 °C 34774.2 hPa Calm     97 % 0 mm
06:47 -12.2 °C -12.4 °C 34774.2 hPa Calm     97 % 0 mm
06:52 -12.1 °C -12.4 °C 34774.2 hPa Calm     97 % 0 mm
07:02 -12.1 °C -12.4 °C 34774.2 hPa Calm     97 % 0 mm
07:07 -12.1 °C -12.4 °C 34774.2 hPa Calm     97 % 0 mm
07:12 -12.1 °C -12.4 °C 34774.2 hPa Calm     97 % 0 mm
07:17 -12.2 °C -12.4 °C 34774.2 hPa Calm     97 % 7.62 mm
07:27 -12 °C -12.3 °C 34774.2 hPa Calm     97 % 7.62 mm
07:32 -11.8 °C -12.1 °C 34774.2 hPa Calm     97 % 7.62 mm
07:42 -11.9 °C -12.2 °C 34774.2 hPa Calm     97 % 7.62 mm
07:47 -11.9 °C -12.2 °C 34774.2 hPa Calm     97 % 7.62 mm
07:52 -12 °C -12.3 °C 34774.2 hPa Calm     97 % 7.62 mm
08:02 -11.8 °C -12.1 °C 34774.2 hPa Calm     97 % 7.62 mm
08:12 -11.9 °C -12.2 °C 34774.2 hPa Calm     97 % 7.62 mm
08:17 -11.9 °C -12.2 °C 34784.4 hPa Calm     97 % 0 mm
08:22 -11.8 °C -12.1 °C 34784.4 hPa Calm     97 % 0 mm
08:27 -11.8 °C -12.1 °C 34784.4 hPa Calm     97 % 0 mm
08:32 -11.8 °C -12.1 °C 34784.4 hPa Calm     97 % 0 mm
08:42 -11.7 °C -11.9 °C 34784.4 hPa Calm     97 % 0 mm
08:47 -11.8 °C -12.1 °C 34784.4 hPa Calm     97 % 0 mm
08:52 -11.8 °C -12.1 °C 34784.4 hPa Calm     97 % 0 mm
08:57 -11.8 °C -12.1 °C 34784.4 hPa Calm     97 % 0 mm
09:02 -11.7 °C -12 °C 34797.9 hPa Calm     97 % 0 mm
09:12 -11.4 °C -11.7 °C 34797.9 hPa Calm     97 % 0 mm
09:17 -11.2 °C -11.5 °C 34797.9 hPa Calm     97 % 0 mm
09:22 -11.1 °C -11.4 °C 34797.9 hPa Calm     97 % 0 mm
09:32 -10.7 °C -11 °C 34797.9 hPa Calm     97 % 0 mm
09:37 -10.7 °C -11 °C 34797.9 hPa Calm     96 % 0 mm
09:42 -10.7 °C -11 °C 34797.9 hPa Calm     96 % 0 mm
09:47 -10.6 °C -10.9 °C 34797.9 hPa Calm     96 % 0 mm
09:52 -10.3 °C -10.7 °C 34797.9 hPa Calm     96 % 0 mm
10:02 -10.1 °C -10.6 °C 34797.9 hPa Calm     95 % 0 mm
10:07 -10 °C -10.6 °C 34797.9 hPa Calm     93 % 0 mm
10:12 -9.9 °C -10.6 °C 34797.9 hPa Calm     92 % 0 mm
10:17 -9.8 °C -10.6 °C 34797.9 hPa Calm   5.1 km/h 91 % 0 mm
10:22 -9.6 °C -10.6 °C 34797.9 hPa Calm   5.1 km/h 89 % 0 mm
10:27 -9.5 °C -10.7 °C 34797.9 hPa Calm   5.1 km/h 87 % 0 mm
10:32 -9.4 °C -10.7 °C 34797.9 hPa Calm   5.1 km/h 86 % 0 mm
10:37 -9.3 °C -10.8 °C 34797.9 hPa Calm   10.3 km/h 84 % 0 mm
10:42 -9.2 °C -10.7 °C 34797.9 hPa South 2.6 km/h 10.3 km/h 84 % 0 mm
10:52 -9 °C -10.8 °C 34808.1 hPa South 2.6 km/h 10.3 km/h 81 % 0 mm
10:57 -9 °C -10.9 °C 34808.1 hPa SW 2.6 km/h 10.3 km/h 80 % 0 mm
11:02 -8.9 °C -10.8 °C 34797.9 hPa SE 2.6 km/h 10.3 km/h 81 % 0 mm
11:12 -8.8 °C -10.8 °C 34797.9 hPa Calm   10.3 km/h 79 % 0 mm
11:17 -8.8 °C -10.8 °C 34808.1 hPa Calm   5.1 km/h 79 % 0 mm
11:22 -8.8 °C -10.7 °C 34797.9 hPa SSE 5.1 km/h 5.1 km/h 80 % 0 mm
11:32 -8.6 °C -10.6 °C 34797.9 hPa Calm   12.9 km/h 79 % 0 mm
11:37 -8.4 °C -10.7 °C 34797.9 hPa SW 7.7 km/h 12.9 km/h 77 % 0 mm
11:47 -8.4 °C -10.7 °C 34797.9 hPa SW 2.6 km/h 10.3 km/h 77 % 0 mm
11:57 -8.2 °C -10.5 °C 34797.9 hPa South 2.6 km/h 10.3 km/h 77 % 0 mm
12:02 -8 °C -10.3 °C 34797.9 hPa Calm   10.3 km/h 77 % 0 mm
12:12 -8.1 °C -10.6 °C 34797.9 hPa NE 5.1 km/h 7.7 km/h 75 % 0 mm
12:17 -8 °C -10.3 °C 34797.9 hPa Calm   10.3 km/h 77 % 0 mm
12:22 -7.9 °C -10.3 °C 34797.9 hPa Calm   10.3 km/h 76 % 0 mm
12:32 -7.5 °C -10.1 °C 34784.4 hPa Calm   7.7 km/h 74 % 0 mm
12:37 -7.3 °C -9.9 °C 34797.9 hPa SE 7.7 km/h 7.7 km/h 74 % 0 mm
12:42 -7.2 °C -10.2 °C 34797.9 hPa Calm   5.1 km/h 71 % 0 mm
12:47 -7.1 °C -10.1 °C 34797.9 hPa NE 2.6 km/h 5.1 km/h 71 % 0 mm
12:52 -7.2 °C -10.1 °C 34784.4 hPa Calm   7.7 km/h 72 % 0 mm
12:57 -7.2 °C -10.1 °C 34797.9 hPa ENE 2.6 km/h 7.7 km/h 72 % 0 mm
13:02 -7.2 °C -9.9 °C 34784.4 hPa Calm   10.3 km/h 73 % 0 mm
13:12 -6.7 °C -9.8 °C 34784.4 hPa ESE 2.6 km/h 10.3 km/h 70 % 0 mm
13:17 -6.8 °C -10.1 °C 34784.4 hPa Calm   10.3 km/h 69 % 0 mm
13:22 -6.7 °C -9.8 °C 34784.4 hPa East 5.1 km/h 10.3 km/h 70 % 0 mm
13:32 -6.4 °C -9.7 °C 34774.2 hPa South 2.6 km/h 12.9 km/h 69 % 0 mm
13:42 -6.2 °C -9.9 °C 34774.2 hPa Calm   10.3 km/h 66 % 0 mm
13:52 -6.2 °C -9.9 °C 34774.2 hPa ENE 7.7 km/h 12.9 km/h 66 % 0 mm
13:57 -6.2 °C -9.8 °C 34760.7 hPa South 2.6 km/h 12.9 km/h 66 % 0 mm
14:02 -6 °C -9.8 °C 34760.7 hPa SE 5.1 km/h 12.9 km/h 65 % 0 mm
14:12 -5.8 °C -9.8 °C 34760.7 hPa East 10.3 km/h 12.9 km/h 63 % 0 mm
14:17 -5.8 °C -9.7 °C 34760.7 hPa East 5.1 km/h 12.9 km/h 64 % 0 mm
14:22 -5.8 °C -9.6 °C 34760.7 hPa ENE 7.7 km/h 12.9 km/h 65 % 0 mm
Meteo18
Compliments of Weather Underground - 4 mb

Script developed by  Jim McMurry - jmcmurry@mwt.net Adapted for the template by  Wim van der Kuil - Leuven-Template.eu

You find our weather info also at:

European Weather Network

Weather Underground

Equipment we use:

Weather-station
Davis Vue

Weather-program
Meteobridge

Weather-server
Raspberry PI 2 B+

Provider
1 and 1

Davis Vue

Meteobridge

Raspberry PI 2 B+

1 and 1